createdAt,value
2022-11-01T00:01:47.342Z,99187.08
2022-11-01T00:04:14.519Z,99193.05
2022-11-01T00:06:41.541Z,99191.17
2022-11-01T00:09:08.491Z,99192.55
2022-11-01T00:11:37.356Z,99187.28
2022-11-01T00:14:04.562Z,99187.68
2022-11-01T00:16:32.056Z,99187.25
2022-11-01T00:19:00.383Z,99184.85
2022-11-01T00:21:27.768Z,99184.35
2022-11-01T00:23:55.684Z,99181.77
2022-11-01T00:26:23.590Z,99180.60
2022-11-01T00:28:51.233Z,99180.61
2022-11-01T00:31:19.127Z,99178.60
2022-11-01T00:33:47.323Z,99183.24
2022-11-01T00:36:14.627Z,99177.35
2022-11-01T00:38:42.185Z,99178.26
2022-11-01T00:41:09.211Z,99171.11
2022-11-01T00:43:36.548Z,99170.83
2022-11-01T00:46:03.713Z,99166.22
2022-11-01T00:48:30.828Z,99167.23
2022-11-01T00:50:57.825Z,99168.36
2022-11-01T00:53:25.056Z,99164.73
2022-11-01T00:55:52.369Z,99166.54
2022-11-01T00:58:19.728Z,99167.86
2022-11-01T01:00:47.982Z,99164.86
2022-11-01T01:03:15.394Z,99164.80
2022-11-01T01:05:42.506Z,99168.85
2022-11-01T01:08:10.185Z,99170.60
2022-11-01T01:10:37.365Z,99173.45
2022-11-01T01:13:05.661Z,99170.86
2022-11-01T01:15:33.632Z,99163.68
2022-11-01T01:18:01.776Z,99165.08
2022-11-01T01:20:30.079Z,99165.12
2022-11-01T01:22:57.172Z,99161.50
2022-11-01T01:25:24.436Z,99163.60
2022-11-01T01:27:51.623Z,99163.16
2022-11-01T01:30:19.082Z,99154.44
2022-11-01T01:32:46.329Z,99154.99
2022-11-01T01:35:13.528Z,99159.34
2022-11-01T01:37:40.519Z,99155.74
2022-11-01T01:40:08.895Z,99153.67
2022-11-01T01:42:41.613Z,99154.00
2022-11-01T01:45:34.395Z,99153.27
2022-11-01T01:48:21.762Z,99148.85
2022-11-01T01:50:59.842Z,99146.19
2022-11-01T01:53:29.810Z,99145.10
2022-11-01T01:56:07.859Z,99145.64
2022-11-01T01:58:43.968Z,99146.49
2022-11-01T02:01:11.159Z,99148.41
2022-11-01T02:03:38.621Z,99146.20
2022-11-01T02:06:16.756Z,99143.21
2022-11-01T02:09:00.814Z,99137.88
2022-11-01T02:11:28.932Z,99138.36
2022-11-01T02:13:56.550Z,99137.19
2022-11-01T02:16:35.818Z,99133.51
2022-11-01T02:19:11.369Z,99135.66
2022-11-01T02:21:44.026Z,99131.20
2022-11-01T02:24:17.645Z,99131.14
2022-11-01T02:27:00.439Z,99130.18
2022-11-01T02:29:55.570Z,99129.77
2022-11-01T02:33:02.100Z,99127.83
2022-11-01T02:35:41.882Z,99128.63
2022-11-01T02:38:25.635Z,99126.69
2022-11-01T02:41:03.746Z,99118.38
2022-11-01T02:43:45.952Z,99119.90
2022-11-01T02:46:31.666Z,99122.67
2022-11-01T02:48:59.305Z,99128.00
2022-11-01T02:51:26.259Z,99123.02
2022-11-01T02:53:53.292Z,99128.39
2022-11-01T02:56:22.385Z,99132.30
2022-11-01T02:58:49.404Z,99133.63
2022-11-01T03:01:22.061Z,99133.84
2022-11-01T03:03:49.297Z,99133.15
2022-11-01T03:06:39.971Z,99129.58
2022-11-01T03:09:11.470Z,99127.88
2022-11-01T03:11:52.851Z,99126.60
2022-11-01T03:14:24.598Z,99129.61
2022-11-01T03:17:09.457Z,99130.01
2022-11-01T03:19:48.892Z,99124.75
2022-11-01T03:22:22.399Z,99122.64
2022-11-01T03:25:31.859Z,99121.64
2022-11-01T03:28:00.244Z,99121.40
2022-11-01T03:30:27.227Z,99115.72
2022-11-01T03:32:55.284Z,99125.86
2022-11-01T03:35:27.510Z,99119.71
2022-11-01T03:37:59.095Z,99120.13
2022-11-01T03:40:26.509Z,99116.66
2022-11-01T03:42:53.910Z,99125.32
2022-11-01T03:47:55.513Z,99118.66
2022-11-01T03:50:24.954Z,99121.08
2022-11-01T03:52:53.476Z,99118.88
2022-11-01T03:55:20.831Z,99117.48
2022-11-01T03:57:49.309Z,99118.43
2022-11-01T04:00:18.173Z,99121.56
2022-11-01T04:02:45.371Z,99122.92
2022-11-01T04:05:12.436Z,99123.90
2022-11-01T04:07:40.255Z,99123.34
2022-11-01T04:10:07.773Z,99123.89
2022-11-01T04:12:37.308Z,99117.84
2022-11-01T04:15:24.057Z,99113.98
2022-11-01T04:18:38.281Z,99108.17
2022-11-01T04:21:25.084Z,99104.98
2022-11-01T04:23:52.454Z,99096.89
2022-11-01T04:26:21.608Z,99094.89
2022-11-01T04:28:57.786Z,99091.95
2022-11-01T04:31:26.698Z,99090.60
2022-11-01T04:33:56.546Z,99090.70
2022-11-01T04:36:23.990Z,99087.61
2022-11-01T04:38:52.799Z,99083.48
2022-11-01T04:41:20.184Z,99089.89
2022-11-01T04:43:47.715Z,99093.08
2022-11-01T04:46:15.449Z,99092.86
2022-11-01T04:48:42.656Z,99084.09
2022-11-01T04:51:09.794Z,99082.80
2022-11-01T04:53:39.564Z,99083.52
2022-11-01T04:56:08.961Z,99085.73
2022-11-01T04:58:41.461Z,99087.73
2022-11-01T05:01:12.653Z,99088.23
2022-11-01T05:03:40.116Z,99090.11
2022-11-01T05:06:07.480Z,99091.96
2022-11-01T05:08:35.696Z,99089.55
2022-11-01T05:11:04.537Z,99088.46
2022-11-01T05:13:34.247Z,99085.50
2022-11-01T05:16:21.130Z,99079.69
2022-11-01T05:18:48.759Z,99085.69
2022-11-01T05:21:18.096Z,99083.91
2022-11-01T05:23:49.909Z,99088.02
2022-11-01T05:26:17.056Z,99085.24
2022-11-01T05:28:44.256Z,99083.16
2022-11-01T05:31:11.334Z,99082.34
2022-11-01T05:33:40.663Z,99081.69
2022-11-01T05:36:08.059Z,99077.33
2022-11-01T05:38:36.859Z,99076.02
2022-11-01T05:41:04.458Z,99076.60
2022-11-01T05:43:31.552Z,99072.66
2022-11-01T05:45:59.143Z,99072.30
2022-11-01T05:48:26.287Z,99072.46
2022-11-01T05:50:55.895Z,99072.39
2022-11-01T05:53:22.978Z,99071.46
2022-11-01T05:55:51.125Z,99070.58
2022-11-01T05:58:18.164Z,99069.30
2022-11-01T06:00:45.084Z,99076.14
2022-11-01T06:03:12.384Z,99074.73
2022-11-01T06:05:39.926Z,99075.83
2022-11-01T06:08:09.583Z,99072.35
2022-11-01T06:10:36.832Z,99062.96
2022-11-01T06:13:05.399Z,99058.35
2022-11-01T06:15:37.129Z,99054.23
2022-11-01T06:18:08.941Z,99055.44
2022-11-01T06:20:38.987Z,99050.86
2022-11-01T06:23:09.133Z,99048.33
2022-11-01T06:25:37.052Z,99045.65
2022-11-01T06:28:04.527Z,99047.33
2022-11-01T06:30:31.863Z,99045.38
2022-11-01T06:33:01.398Z,99043.55
2022-11-01T06:35:28.935Z,99040.38
2022-11-01T06:38:06.787Z,99040.71
2022-11-01T06:40:34.730Z,99039.41
2022-11-01T06:43:02.848Z,99032.90
2022-11-01T06:45:31.317Z,99030.95
2022-11-01T06:47:59.299Z,99026.55
2022-11-01T06:50:26.587Z,99027.53
2022-11-01T06:52:58.490Z,99027.08
2022-11-01T06:55:26.463Z,99021.05
2022-11-01T06:57:58.897Z,99016.94
2022-11-01T07:00:26.977Z,99010.94
2022-11-01T07:03:05.595Z,99006.84
2022-11-01T07:05:37.459Z,99009.50
2022-11-01T07:08:07.153Z,99003.23
2022-11-01T07:10:35.675Z,99000.35
2022-11-01T07:13:04.519Z,98999.42
2022-11-01T07:15:32.399Z,98999.48
2022-11-01T07:18:04.578Z,98994.54
2022-11-01T07:20:41.677Z,98990.56
2022-11-01T07:23:16.595Z,98982.04
2022-11-01T07:25:44.577Z,98973.08
2022-11-01T07:28:11.875Z,98972.48
2022-11-01T07:30:39.630Z,98972.20
2022-11-01T07:33:07.280Z,98970.75
2022-11-01T07:35:35.134Z,98971.33
2022-11-01T07:38:06.677Z,98969.94
2022-11-01T07:40:39.376Z,98968.52
2022-11-01T07:43:18.808Z,98963.84
2022-11-01T07:45:46.234Z,98963.70
2022-11-01T07:48:14.559Z,98960.33
2022-11-01T07:50:42.345Z,98961.27
2022-11-01T07:53:16.766Z,98959.83
2022-11-01T07:55:44.676Z,98958.88
2022-11-01T07:58:12.070Z,98956.00
2022-11-01T08:00:39.794Z,98953.98
2022-11-01T08:03:12.382Z,98949.63
2022-11-01T08:05:39.776Z,98946.28
2022-11-01T08:08:07.422Z,98944.95
2022-11-01T08:10:37.067Z,98944.80
2022-11-01T08:13:06.492Z,98947.34
2022-11-01T08:15:34.107Z,98944.77
2022-11-01T08:20:21.869Z,98943.41
2022-11-01T08:22:48.818Z,98940.30
2022-11-01T08:25:15.965Z,98941.61
2022-11-01T08:27:43.630Z,98940.77
2022-11-01T08:30:11.480Z,98940.92
2022-11-01T08:32:38.465Z,98937.77
2022-11-01T08:35:05.970Z,98937.16
2022-11-01T08:37:32.950Z,98935.39
2022-11-01T08:40:00.340Z,98936.10
2022-11-01T08:42:27.264Z,98930.42
2022-11-01T08:44:54.455Z,98927.95
2022-11-01T08:47:21.461Z,98923.20
2022-11-01T08:49:48.400Z,98919.20
2022-11-01T08:52:15.341Z,98913.60
2022-11-01T08:54:42.285Z,98910.02
2022-11-01T08:57:09.223Z,98906.46
2022-11-01T08:59:36.459Z,98904.73
2022-11-01T09:02:03.769Z,98904.27
2022-11-01T09:04:31.090Z,98901.42
2022-11-01T09:06:58.109Z,98893.92
2022-11-01T09:09:25.223Z,98889.93
2022-11-01T09:11:53.434Z,98891.76
2022-11-01T09:14:24.238Z,98885.10
2022-11-01T09:16:51.690Z,98880.52
2022-11-01T09:19:22.432Z,98879.35
2022-11-01T09:21:50.843Z,98874.40
2022-11-01T09:24:17.963Z,98872.70
2022-11-01T09:26:45.067Z,98865.98
2022-11-01T09:29:12.183Z,98860.20
2022-11-01T09:31:40.648Z,98863.16
2022-11-01T09:34:07.637Z,98862.35
2022-11-01T09:36:34.893Z,98860.16
2022-11-01T09:39:01.919Z,98856.04
2022-11-01T09:41:38.907Z,98852.84
2022-11-01T09:44:06.384Z,98851.44
2022-11-01T09:46:56.664Z,98844.66
2022-11-01T09:49:29.783Z,98841.19
2022-11-01T09:51:57.100Z,98830.42
2022-11-01T09:54:24.475Z,98828.57
2022-11-01T09:57:18.548Z,98828.34
2022-11-01T09:59:48.943Z,98823.14
2022-11-01T10:02:32.700Z,98819.25
2022-11-01T10:05:24.295Z,98808.80
2022-11-01T10:08:04.895Z,98804.45
2022-11-01T10:10:39.067Z,98797.68
2022-11-01T10:13:09.317Z,98795.20
2022-11-01T10:16:00.482Z,98790.68
2022-11-01T10:18:32.497Z,98788.66
2022-11-01T10:21:10.905Z,98785.98
2022-11-01T10:23:40.825Z,98784.18
2022-11-01T10:26:07.968Z,98783.59
2022-11-01T10:28:40.401Z,98776.13
2022-11-01T10:31:12.228Z,98771.37
2022-11-01T10:33:41.720Z,98766.92
2022-11-01T10:36:18.851Z,98768.02
2022-11-01T10:41:48.379Z,98758.52
2022-11-01T10:44:17.895Z,98754.52
2022-11-01T10:46:47.073Z,98745.80
2022-11-01T10:49:24.532Z,98740.36
2022-11-01T10:51:54.137Z,98742.94
2022-11-01T10:54:24.250Z,98737.30
2022-11-01T10:56:51.981Z,98733.27
2022-11-01T10:59:36.022Z,98730.12
2022-11-01T11:02:05.701Z,98727.90
2022-11-01T11:04:33.010Z,98724.86
2022-11-01T11:07:01.512Z,98726.67
2022-11-01T11:09:30.969Z,98723.99
2022-11-01T11:12:02.306Z,98720.23
2022-11-01T11:14:31.749Z,98717.09
2022-11-01T11:16:58.859Z,98722.89
2022-11-01T11:19:33.785Z,98717.57
2022-11-01T11:22:02.870Z,98719.27
2022-11-01T11:24:35.614Z,98709.59
2022-11-01T11:27:04.392Z,98706.37
2022-11-01T11:29:34.605Z,98703.42
2022-11-01T11:32:01.987Z,98700.95
2022-11-01T11:34:34.292Z,98701.25
2022-11-01T11:37:02.249Z,98696.90
2022-11-01T11:39:31.682Z,98693.58
2022-11-01T11:42:19.382Z,98688.25
2022-11-01T11:44:50.667Z,98683.92
2022-11-01T11:47:21.464Z,98680.71
2022-11-01T11:49:50.721Z,98677.33
2022-11-01T11:52:19.607Z,98672.98
2022-11-01T11:54:47.070Z,98670.86
2022-11-01T11:57:30.126Z,98670.77
2022-11-01T12:00:01.105Z,98672.40
2022-11-01T12:02:39.300Z,98672.75
2022-11-01T12:05:09.043Z,98668.68
2022-11-01T12:07:44.153Z,98668.79
2022-11-01T12:10:34.374Z,98662.80
2022-11-01T12:13:02.182Z,98663.76
2022-11-01T12:15:40.065Z,98655.10
2022-11-01T12:18:19.184Z,98652.67
2022-11-01T12:20:50.882Z,98654.16
2022-11-01T12:23:37.940Z,98650.67
2022-11-01T12:26:08.003Z,98646.17
2022-11-01T12:28:43.083Z,98639.73
2022-11-01T12:31:20.873Z,98636.98
2022-11-01T12:33:50.627Z,98629.30
2022-11-01T12:36:18.706Z,98625.09
2022-11-01T12:38:53.673Z,98633.59
2022-11-01T12:41:26.882Z,98629.80
2022-11-01T12:44:07.428Z,98627.98
2022-11-01T12:46:41.315Z,98619.98
2022-11-01T12:49:16.565Z,98619.73
2022-11-01T12:51:49.828Z,98617.63
2022-11-01T12:54:29.220Z,98619.94
2022-11-01T12:56:56.905Z,98617.99
2022-11-01T12:59:31.865Z,98617.31
2022-11-01T13:02:13.775Z,98614.39
2022-11-01T13:04:52.980Z,98610.73
2022-11-01T13:07:35.523Z,98607.34
2022-11-01T13:10:05.261Z,98606.87
2022-11-01T13:12:38.580Z,98602.98
2022-11-01T13:15:25.705Z,98604.31
2022-11-01T13:18:05.813Z,98602.20
2022-11-01T13:20:51.985Z,98605.70
2022-11-01T13:23:38.268Z,98601.45
2022-11-01T13:26:28.324Z,98594.45
2022-11-01T13:29:01.346Z,98596.00
2022-11-01T13:31:40.591Z,98591.91
2022-11-01T13:34:14.095Z,98587.98
2022-11-01T13:36:50.725Z,98590.01
2022-11-01T13:39:37.817Z,98585.21
2022-11-01T13:42:18.495Z,98579.64
2022-11-01T13:45:07.301Z,98577.14
2022-11-01T13:47:38.650Z,98575.61
2022-11-01T13:50:30.435Z,98579.70
2022-11-01T13:52:57.995Z,98574.59
2022-11-01T13:55:49.932Z,98577.52
2022-11-01T13:58:20.842Z,98573.23
2022-11-01T14:00:50.328Z,98567.61
2022-11-01T14:03:21.784Z,98569.09
2022-11-01T14:06:11.492Z,98569.84
2022-11-01T14:08:39.190Z,98568.63
2022-11-01T14:11:11.434Z,98567.01
2022-11-01T14:13:41.030Z,98563.40
2022-11-01T14:16:14.111Z,98561.70
2022-11-01T14:19:03.628Z,98559.48
2022-11-01T14:21:32.306Z,98557.33
2022-11-01T14:24:00.310Z,98556.03
2022-11-01T14:26:38.094Z,98561.45
2022-11-01T14:29:10.073Z,98559.58
2022-11-01T14:31:37.082Z,98557.65
2022-11-01T14:34:09.517Z,98554.70
2022-11-01T14:36:39.676Z,98550.98
2022-11-01T14:39:16.256Z,98553.94
2022-11-01T14:41:43.256Z,98550.56
2022-11-01T14:44:15.083Z,98546.65
2022-11-01T14:46:46.261Z,98544.87
2022-11-01T14:49:45.355Z,98543.63
2022-11-01T14:52:32.247Z,98535.95
2022-11-01T14:55:04.355Z,98534.26
2022-11-01T14:57:33.543Z,98531.83
2022-11-01T15:00:30.046Z,98532.92
2022-11-01T15:05:31.180Z,98535.80
2022-11-01T15:07:59.485Z,98539.86
2022-11-01T15:10:26.989Z,98546.86
2022-11-01T15:12:57.910Z,98548.98
2022-11-01T15:15:27.982Z,98543.15
2022-11-01T15:18:19.195Z,98544.38
2022-11-01T15:20:50.179Z,98542.05
2022-11-01T15:23:28.387Z,98538.91
2022-11-01T15:25:56.553Z,98541.48
2022-11-01T15:28:35.841Z,98540.52
2022-11-01T15:31:03.291Z,98542.55
2022-11-01T15:33:33.652Z,98552.00
2022-11-01T15:36:17.195Z,98553.67
2022-11-01T15:38:55.103Z,98550.60
2022-11-01T15:41:29.408Z,98549.14
2022-11-01T15:43:58.323Z,98553.65
2022-11-01T15:46:31.667Z,98560.50
2022-11-01T15:49:06.219Z,98560.95
2022-11-01T15:51:33.449Z,98560.74
2022-11-01T15:54:02.994Z,98559.70
2022-11-01T15:56:45.856Z,98556.98
2022-11-01T15:59:17.846Z,98558.93
2022-11-01T16:01:45.758Z,98559.31
2022-11-01T16:04:12.853Z,98562.61
2022-11-01T16:06:51.329Z,98567.35
2022-11-01T16:09:22.045Z,98573.01
2022-11-01T16:11:57.675Z,98576.57
2022-11-01T16:14:32.416Z,98576.28
2022-11-01T16:17:06.752Z,98576.72
2022-11-01T16:19:48.316Z,98581.98
2022-11-01T16:22:44.419Z,98590.09
2022-11-01T16:25:11.428Z,98588.77
2022-11-01T16:27:52.310Z,98586.11
2022-11-01T16:30:40.229Z,98583.52
2022-11-01T16:33:29.893Z,98582.48
2022-11-01T16:35:58.783Z,98585.01
2022-11-01T16:38:36.245Z,98584.32
2022-11-01T16:41:07.374Z,98586.05
2022-11-01T16:43:34.910Z,98585.80
2022-11-01T16:46:03.172Z,98582.88
2022-11-01T16:48:32.322Z,98585.48
2022-11-01T16:51:00.130Z,98584.05
2022-11-01T16:53:29.674Z,98590.39
2022-11-01T16:56:23.332Z,98588.83
2022-11-01T16:58:51.967Z,98591.72
2022-11-01T17:01:24.185Z,98590.82
2022-11-01T17:03:52.662Z,98595.36
2022-11-01T17:06:20.189Z,98593.45
2022-11-01T17:08:47.622Z,98591.98
2022-11-01T17:11:14.773Z,98593.91
2022-11-01T17:13:41.982Z,98597.74
2022-11-01T17:16:30.054Z,98598.79
2022-11-01T17:18:58.754Z,98599.56
2022-11-01T17:21:25.750Z,98597.67
2022-11-01T17:23:52.856Z,98601.89
2022-11-01T17:26:19.807Z,98601.98
2022-11-01T17:28:49.607Z,98602.20
2022-11-01T17:31:19.363Z,98602.34
2022-11-01T17:33:46.411Z,98604.77
2022-11-01T17:36:14.625Z,98606.62
2022-11-01T17:38:41.811Z,98605.58
2022-11-01T17:41:09.629Z,98602.40
2022-11-01T17:43:37.697Z,98606.00
2022-11-01T17:46:09.717Z,98605.02
2022-11-01T17:48:38.720Z,98601.86
2022-11-01T17:51:05.725Z,98602.61
2022-11-01T17:53:32.702Z,98605.09
2022-11-01T17:55:59.762Z,98606.61
2022-11-01T17:58:27.274Z,98613.50
2022-11-01T18:00:54.313Z,98618.86
2022-11-01T18:03:22.504Z,98623.61
2022-11-01T18:05:49.883Z,98624.50
2022-11-01T18:08:19.360Z,98630.24
2022-11-01T18:11:05.505Z,98634.27
2022-11-01T18:13:52.221Z,98629.80
2022-11-01T18:16:23.678Z,98633.42
2022-11-01T18:19:24.914Z,98650.23
2022-11-01T18:22:01.491Z,98652.65
2022-11-01T18:24:34.792Z,98658.48
2022-11-01T18:27:02.464Z,98659.44
2022-11-01T18:29:29.787Z,98658.70
2022-11-01T18:32:20.394Z,98658.91
2022-11-01T18:35:00.343Z,98657.48
2022-11-01T18:37:50.512Z,98662.66
2022-11-01T18:40:30.514Z,98667.66
2022-11-01T18:42:57.623Z,98669.39
2022-11-01T18:45:31.024Z,98672.73
2022-11-01T18:48:06.323Z,98668.85
2022-11-01T18:50:33.771Z,98671.60
2022-11-01T18:53:08.525Z,98672.23
2022-11-01T18:55:39.365Z,98683.13
2022-11-01T18:58:17.779Z,98681.38
2022-11-01T19:00:45.465Z,98683.80
2022-11-01T19:03:14.170Z,98682.44
2022-11-01T19:05:42.267Z,98686.43
2022-11-01T19:08:25.702Z,98685.66
2022-11-01T19:10:53.121Z,98688.41
2022-11-01T19:13:34.121Z,98692.61
2022-11-01T19:16:01.856Z,98698.09
2022-11-01T19:18:29.282Z,98691.14
2022-11-01T19:20:58.774Z,98693.23
2022-11-01T19:23:45.898Z,98696.33
2022-11-01T19:26:26.079Z,98694.91
2022-11-01T19:28:53.193Z,98700.52
2022-11-01T19:31:29.669Z,98699.33
2022-11-01T19:34:12.629Z,98702.09
2022-11-01T19:36:42.299Z,98699.41
2022-11-01T19:39:24.191Z,98699.88
2022-11-01T19:41:51.919Z,98703.08
2022-11-01T19:44:20.853Z,98704.42
2022-11-01T19:46:52.410Z,98708.34
2022-11-01T19:49:32.223Z,98706.39
2022-11-01T19:52:08.062Z,98706.06
2022-11-01T19:54:37.240Z,98710.92
2022-11-01T19:57:34.224Z,98713.83
2022-11-01T20:00:22.002Z,98714.50
2022-11-01T20:02:49.877Z,98715.16
2022-11-01T20:05:25.848Z,98720.25
2022-11-01T20:07:55.385Z,98719.93
2022-11-01T20:10:29.410Z,98725.37
2022-11-01T20:12:56.712Z,98724.48
2022-11-01T20:15:23.649Z,98725.02
2022-11-01T20:17:50.810Z,98726.45
2022-11-01T20:20:18.400Z,98728.40
2022-11-01T20:22:55.016Z,98730.52
2022-11-01T20:25:38.235Z,98736.34
2022-11-01T20:28:06.350Z,98737.98
2022-11-01T20:30:35.194Z,98732.42
2022-11-01T20:33:02.571Z,98731.39
2022-11-01T20:35:30.262Z,98729.45
2022-11-01T20:37:58.102Z,98732.78
2022-11-01T20:40:26.484Z,98738.97
2022-11-01T20:42:54.528Z,98745.50
2022-11-01T20:45:21.644Z,98743.39
2022-11-01T20:47:48.719Z,98739.88
2022-11-01T20:50:15.892Z,98737.13
2022-11-01T20:52:43.122Z,98738.00
2022-11-01T20:55:11.178Z,98740.27
2022-11-01T20:57:38.275Z,98740.92
2022-11-01T21:00:06.997Z,98742.77
2022-11-01T21:02:34.801Z,98741.88
2022-11-01T21:05:14.584Z,98745.30
2022-11-01T21:07:46.680Z,98744.36
2022-11-01T21:10:27.107Z,98742.52
2022-11-01T21:12:54.345Z,98738.73
2022-11-01T21:15:38.686Z,98739.48
2022-11-01T21:18:12.282Z,98739.42
2022-11-01T21:20:46.460Z,98736.15
2022-11-01T21:23:32.144Z,98734.70
2022-11-01T21:26:07.249Z,98734.98
2022-11-01T21:28:40.133Z,98736.80
2022-11-01T21:31:10.361Z,98741.25
2022-11-01T21:33:38.796Z,98742.30
2022-11-01T21:36:21.432Z,98742.91
2022-11-01T21:38:57.043Z,98742.89
2022-11-01T21:41:34.678Z,98740.77
2022-11-01T21:44:15.451Z,98741.65
2022-11-01T21:46:43.831Z,98740.44
2022-11-01T21:49:20.953Z,98738.80
2022-11-01T21:51:48.919Z,98739.00
2022-11-01T21:54:15.975Z,98735.59
2022-11-01T21:56:43.492Z,98736.23
2022-11-01T21:59:10.874Z,98739.86
2022-11-01T22:01:40.276Z,98739.68
2022-11-01T22:04:07.383Z,98740.27
2022-11-01T22:06:36.598Z,98737.35
2022-11-01T22:09:04.239Z,98739.54
2022-11-01T22:11:32.953Z,98739.14
2022-11-01T22:14:01.136Z,98737.40
2022-11-01T22:16:29.648Z,98736.23
2022-11-01T22:18:56.985Z,98737.35
2022-11-01T22:21:24.476Z,98740.77
2022-11-01T22:23:51.795Z,98742.58
2022-11-01T22:26:18.832Z,98741.23
2022-11-01T22:28:46.061Z,98743.23
2022-11-01T22:31:13.704Z,98742.80
2022-11-01T22:33:41.992Z,98741.07
2022-11-01T22:36:24.443Z,98743.61
2022-11-01T22:38:52.071Z,98744.69
2022-11-01T22:41:31.694Z,98746.16
2022-11-01T22:44:05.364Z,98747.24
2022-11-01T22:46:57.937Z,98749.56
2022-11-01T22:49:31.074Z,98746.80
2022-11-01T22:52:18.381Z,98749.23
2022-11-01T22:54:48.788Z,98753.37
2022-11-01T22:57:16.113Z,98751.61
2022-11-01T22:59:50.081Z,98752.55
2022-11-01T23:02:29.475Z,98754.98
2022-11-01T23:05:07.956Z,98757.26
2022-11-01T23:07:54.914Z,98754.17
2022-11-01T23:10:29.991Z,98754.46
2022-11-01T23:13:28.800Z,98754.60
2022-11-01T23:16:00.578Z,98754.48
2022-11-01T23:18:32.615Z,98755.55
2022-11-01T23:21:02.100Z,98756.65
2022-11-01T23:23:30.456Z,98756.44
2022-11-01T23:26:00.038Z,98759.58
2022-11-01T23:28:27.956Z,98760.69
2022-11-01T23:30:55.077Z,98754.11
2022-11-01T23:33:23.476Z,98754.86
2022-11-01T23:35:52.155Z,98753.65
2022-11-01T23:38:21.971Z,98754.53
2022-11-01T23:40:50.009Z,98746.61
2022-11-01T23:43:32.766Z,98745.39
2022-11-01T23:46:00.652Z,98749.13
2022-11-01T23:48:27.575Z,98743.22
2022-11-01T23:50:54.664Z,98748.58
2022-11-01T23:53:30.631Z,98745.46
2022-11-01T23:55:57.536Z,98743.62
2022-11-01T23:58:31.729Z,98739.35
